Time;durP1;ratioP1;P1;durP2;ratioP2;P2;SDS_P1;SDS_P2;PMS_P1;PMS_P2;Temp;Humidity;BMP_temperature;BMP_pressure;BME280_temperature;BME280_humidity;BME280_pressure;Samples;Min_cycle;Max_cycle;Signal;HPM_P1;HPM_P2
2023/08/29 00:02:13;;;;;;;0.32;0.10;;;13.10;99.90;;;;;;5113870;28;20493;-75
2023/08/29 00:04:39;;;;;;;0.43;0.10;;;13.10;99.90;;;;;;5113847;28;20507;-75
2023/08/29 00:07:05;;;;;;;0.10;0.10;;;13.20;99.90;;;;;;5113864;28;20047;-75
2023/08/29 00:09:32;;;;;;;0.00;0.00;;;13.20;99.90;;;;;;5095524;28;20031;-75
2023/08/29 00:11:58;;;;;;;0.00;0.00;;;13.10;99.90;;;;;;5113885;28;20428;-75
2023/08/29 00:14:23;;;;;;;1.20;0.10;;;13.10;99.90;;;;;;5095818;28;20056;-75
2023/08/29 00:16:49;;;;;;;0.05;0.00;;;13.00;99.90;;;;;;5113230;28;20032;-75
2023/08/29 00:19:15;;;;;;;0.15;0.03;;;13.00;99.90;;;;;;5113964;28;20053;-75
2023/08/29 00:21:41;;;;;;;0.30;0.10;;;12.90;99.90;;;;;;5095360;28;20027;-75
2023/08/29 00:24:10;;;;;;;0.52;0.10;;;12.90;99.90;;;;;;5096337;28;20073;-75
2023/08/29 00:26:36;;;;;;;0.20;0.10;;;12.80;99.90;;;;;;5114026;28;20057;-75
2023/08/29 00:29:02;;;;;;;0.40;0.10;;;12.80;99.90;;;;;;5113533;28;20024;-75
2023/08/29 00:31:27;;;;;;;0.00;0.00;;;12.80;99.90;;;;;;5095676;28;20108;-75
2023/08/29 00:33:54;;;;;;;0.10;0.00;;;12.80;99.90;;;;;;5113945;28;20027;-75
2023/08/29 00:36:20;;;;;;;0.47;0.08;;;12.80;99.90;;;;;;5095938;28;20077;-75
2023/08/29 00:38:46;;;;;;;0.00;0.00;;;12.80;99.90;;;;;;5115014;28;20028;-75
2023/08/29 00:41:11;;;;;;;0.00;0.00;;;12.80;99.90;;;;;;5113585;28;20035;-75
2023/08/29 00:43:37;;;;;;;0.40;0.00;;;12.80;99.90;;;;;;5113927;28;20084;-75
2023/08/29 00:46:04;;;;;;;0.93;0.10;;;12.80;99.90;;;;;;5117455;28;20388;-75
2023/08/29 00:48:31;;;;;;;0.00;0.00;;;12.80;99.90;;;;;;5117706;28;20035;-75
2023/08/29 00:50:57;;;;;;;0.90;0.10;;;12.80;99.90;;;;;;5117583;28;20085;-75
2023/08/29 00:53:25;;;;;;;0.05;0.00;;;12.80;99.90;;;;;;5099484;28;20110;-72
2023/08/29 00:55:51;;;;;;;0.00;0.00;;;12.80;99.90;;;;;;5117897;28;20024;-72
2023/08/29 00:58:17;;;;;;;0.03;0.03;;;12.80;99.90;;;;;;5117535;28;20032;-72
2023/08/29 01:00:43;;;;;;;0.10;0.00;;;12.80;99.90;;;;;;5117110;28;20081;-72
2023/08/29 01:03:08;;;;;;;0.60;0.00;;;12.80;99.90;;;;;;5117679;28;20027;-72
2023/08/29 01:05:34;;;;;;;1.17;0.05;;;12.80;99.90;;;;;;5104114;28;20024;-72
2023/08/29 01:08:01;;;;;;;0.08;0.00;;;12.80;99.90;;;;;;5116250;28;20030;-72
2023/08/29 01:10:50;;;;;;;0.70;0.20;;;12.90;99.90;;;;;;5103372;28;20027;-72
2023/08/29 01:13:49;;;;;;;0.00;0.00;;;12.80;99.90;;;;;;5103550;28;20032;-72
2023/08/29 01:16:18;;;;;;;0.00;0.00;;;12.80;99.90;;;;;;5116133;28;20043;-72
2023/08/29 01:18:46;;;;;;;0.30;0.10;;;12.80;99.90;;;;;;5096109;28;20484;-72
2023/08/29 01:21:25;;;;;;;0.00;0.00;;;12.80;99.90;;;;;;5108672;28;20081;-72
2023/08/29 01:24:01;;;;;;;0.40;0.10;;;12.90;99.90;;;;;;5091748;28;20387;-72
2023/08/29 01:26:28;;;;;;;0.10;0.03;;;12.90;99.90;;;;;;5112026;28;20112;-72
2023/08/29 01:28:54;;;;;;;0.15;0.00;;;12.80;99.90;;;;;;5116087;28;20020;-72
2023/08/29 01:31:21;;;;;;;0.10;0.00;;;12.80;99.90;;;;;;5115981;28;20476;-72
2023/08/29 01:33:47;;;;;;;0.05;0.05;;;12.60;99.90;;;;;;5115995;28;20049;-72
2023/08/29 01:36:13;;;;;;;0.00;0.00;;;12.50;99.90;;;;;;5097621;28;20554;-72
2023/08/29 01:38:39;;;;;;;0.00;0.00;;;12.50;99.90;;;;;;5089239;28;20123;-73
2023/08/29 01:41:04;;;;;;;0.00;0.00;;;12.50;99.90;;;;;;5094422;28;20480;-73
2023/08/29 01:43:30;;;;;;;0.32;0.10;;;12.50;99.90;;;;;;5096596;28;20460;-72
2023/08/29 01:45:56;;;;;;;0.00;0.00;;;12.50;99.90;;;;;;5096010;28;20389;-72
2023/08/29 01:48:22;;;;;;;0.25;0.10;;;12.40;99.90;;;;;;5095957;28;20027;-73
2023/08/29 01:50:48;;;;;;;0.63;0.00;;;12.40;99.90;;;;;;5095874;28;20036;-72
2023/08/29 01:53:14;;;;;;;2.13;0.10;;;12.30;99.90;;;;;;5095820;28;20115;-72
2023/08/29 01:55:40;;;;;;;0.17;0.05;;;12.30;99.90;;;;;;5095567;28;20112;-72
2023/08/29 01:58:08;;;;;;;1.55;0.10;;;12.30;99.90;;;;;;5077871;28;20024;-72
2023/08/29 02:00:34;;;;;;;0.00;0.00;;;12.20;99.90;;;;;;5095499;28;20107;-72
2023/08/29 02:03:00;;;;;;;0.65;0.10;;;12.20;99.90;;;;;;5077642;28;20024;-72
2023/08/29 02:05:26;;;;;;;0.60;0.43;;;12.20;99.90;;;;;;5095578;28;20047;-72
2023/08/29 02:07:52;;;;;;;0.05;0.00;;;12.20;99.90;;;;;;5095522;28;20046;-72
2023/08/29 02:10:17;;;;;;;0.90;0.10;;;12.20;99.90;;;;;;5093798;28;20031;-72
2023/08/29 02:12:43;;;;;;;0.03;0.00;;;12.20;99.90;;;;;;5115571;28;20036;-73
2023/08/29 02:15:10;;;;;;;0.00;0.00;;;12.20;99.90;;;;;;5116098;28;20030;-73
2023/08/29 02:17:39;;;;;;;0.20;0.08;;;12.20;99.90;;;;;;5115768;28;20100;-72
2023/08/29 02:20:06;;;;;;;0.00;0.00;;;12.20;99.90;;;;;;5097342;28;20031;-72
2023/08/29 02:22:33;;;;;;;0.10;0.10;;;12.20;99.90;;;;;;5115638;28;20023;-72
2023/08/29 02:25:00;;;;;;;0.90;0.10;;;12.20;99.90;;;;;;5097733;28;20067;-72
2023/08/29 02:27:26;;;;;;;0.15;0.03;;;12.20;99.90;;;;;;5097015;28;20023;-72
2023/08/29 02:29:52;;;;;;;1.55;0.00;;;12.20;99.90;;;;;;5097213;28;20023;-72
2023/08/29 02:32:18;;;;;;;0.45;0.10;;;12.10;99.90;;;;;;5115518;28;20039;-72
2023/08/29 02:34:43;;;;;;;0.13;0.00;;;12.10;99.90;;;;;;5115713;28;20531;-72
2023/08/29 02:37:09;;;;;;;0.08;0.03;;;12.10;99.90;;;;;;5115385;28;20023;-72
2023/08/29 02:39:35;;;;;;;0.90;0.10;;;12.10;99.90;;;;;;5115434;28;20035;-72
2023/08/29 02:42:00;;;;;;;2.88;0.22;;;12.00;99.90;;;;;;5115216;28;20043;-72
2023/08/29 02:44:26;;;;;;;0.70;0.10;;;12.00;99.90;;;;;;5097072;28;20023;-72
2023/08/29 02:46:52;;;;;;;0.15;0.00;;;12.00;99.90;;;;;;5096990;28;20023;-72
2023/08/29 02:49:17;;;;;;;0.08;0.00;;;12.00;99.90;;;;;;5115163;28;20027;-72
2023/08/29 02:51:43;;;;;;;0.22;0.00;;;12.00;99.90;;;;;;5115056;28;20026;-72
2023/08/29 02:54:09;;;;;;;0.13;0.08;;;11.90;99.90;;;;;;5114894;28;20081;-72
2023/08/29 02:56:34;;;;;;;0.05;0.05;;;11.90;99.90;;;;;;5079886;28;20056;-72
2023/08/29 02:59:01;;;;;;;0.80;0.22;;;11.90;99.90;;;;;;5114912;28;20026;-72
2023/08/29 03:01:27;;;;;;;0.57;0.30;;;11.90;99.90;;;;;;5114483;28;20107;-72
2023/08/29 03:03:54;;;;;;;0.10;0.10;;;11.90;99.90;;;;;;5097126;28;20043;-72
2023/08/29 03:06:20;;;;;;;0.95;0.10;;;11.90;99.90;;;;;;5114305;28;20035;-72
2023/08/29 03:08:45;;;;;;;0.20;0.10;;;11.90;99.90;;;;;;5114420;28;20024;-72
2023/08/29 03:11:11;;;;;;;0.20;0.10;;;11.90;99.90;;;;;;5114606;28;20027;-72
2023/08/29 03:13:37;;;;;;;0.10;0.10;;;11.90;99.90;;;;;;5114705;28;20042;-72
2023/08/29 03:16:11;;;;;;;0.10;0.10;;;11.90;99.90;;;;;;5114620;28;20035;-72
2023/08/29 03:18:36;;;;;;;0.10;0.10;;;11.90;99.90;;;;;;5096633;28;20040;-72
2023/08/29 03:21:06;;;;;;;0.00;0.00;;;11.90;99.90;;;;;;5096183;28;20035;-72
2023/08/29 03:23:31;;;;;;;0.10;0.10;;;11.90;99.90;;;;;;5114739;28;20528;-72
2023/08/29 03:26:09;;;;;;;0.08;0.08;;;11.80;99.90;;;;;;5114498;28;20049;-72
2023/08/29 03:28:36;;;;;;;0.13;0.10;;;11.90;99.90;;;;;;5114391;28;20023;-72
2023/08/29 03:31:12;;;;;;;0.10;0.10;;;11.80;99.90;;;;;;5114269;28;20046;-72
2023/08/29 03:33:39;;;;;;;0.10;0.10;;;11.80;99.90;;;;;;5114364;28;20055;-72
2023/08/29 03:36:06;;;;;;;0.38;0.10;;;11.80;99.90;;;;;;5114249;28;20038;-72
2023/08/29 03:38:40;;;;;;;0.00;0.00;;;11.80;99.90;;;;;;5114257;28;20035;-72
2023/08/29 03:41:06;;;;;;;1.17;0.20;;;11.80;99.90;;;;;;5114224;28;20096;-72
2023/08/29 03:43:34;;;;;;;0.20;0.10;;;11.80;99.90;;;;;;5114416;28;20035;-73
2023/08/29 03:46:06;;;;;;;0.13;0.10;;;11.70;99.90;;;;;;5114769;28;20019;-73
2023/08/29 03:48:33;;;;;;;1.05;0.20;;;11.70;99.90;;;;;;5114118;28;20031;-73
2023/08/29 03:51:01;;;;;;;0.73;0.20;;;11.70;99.90;;;;;;5114767;28;20031;-72
2023/08/29 03:53:27;;;;;;;0.20;0.20;;;11.70;99.90;;;;;;5095717;28;20035;-72
2023/08/29 03:55:53;;;;;;;0.20;0.20;;;11.70;99.90;;;;;;5114025;28;20072;-72
2023/08/29 03:58:18;;;;;;;0.17;0.17;;;11.60;99.90;;;;;;5113975;28;20036;-73
2023/08/29 04:00:44;;;;;;;0.30;0.20;;;11.60;99.90;;;;;;5113755;28;20030;-73
2023/08/29 04:03:10;;;;;;;0.10;0.10;;;11.60;99.90;;;;;;5113898;28;20028;-72
2023/08/29 04:05:37;;;;;;;0.47;0.20;;;11.60;99.90;;;;;;5113966;28;20023;-72
2023/08/29 04:08:06;;;;;;;0.50;0.17;;;11.60;99.90;;;;;;5113968;28;20024;-73
2023/08/29 04:10:39;;;;;;;0.10;0.10;;;11.60;99.90;;;;;;5114023;28;20395;-72
2023/08/29 04:13:06;;;;;;;0.43;0.10;;;11.60;99.90;;;;;;5113860;28;20046;-72
2023/08/29 04:15:35;;;;;;;0.35;0.10;;;11.60;99.90;;;;;;5114109;28;20028;-72
2023/08/29 04:18:04;;;;;;;0.98;0.20;;;11.60;99.90;;;;;;5114592;28;20093;-72
2023/08/29 04:20:31;;;;;;;0.30;0.10;;;11.60;99.90;;;;;;5115788;28;20058;-72
2023/08/29 04:22:58;;;;;;;0.32;0.10;;;11.60;99.90;;;;;;5118121;28;20019;-72
2023/08/29 04:25:26;;;;;;;1.58;0.10;;;11.60;99.90;;;;;;5118452;28;20016;-72
2023/08/29 04:27:53;;;;;;;0.10;0.10;;;11.60;99.90;;;;;;5099692;28;20027;-72
2023/08/29 04:30:19;;;;;;;0.10;0.10;;;11.60;99.90;;;;;;5117904;28;20034;-72
2023/08/29 04:32:47;;;;;;;0.10;0.10;;;11.60;99.90;;;;;;5117943;28;20421;-72
2023/08/29 04:35:13;;;;;;;0.20;0.10;;;11.60;99.90;;;;;;5118052;28;20407;-72
2023/08/29 04:37:39;;;;;;;0.30;0.10;;;11.50;99.90;;;;;;5117740;28;20095;-72
2023/08/29 04:40:08;;;;;;;0.17;0.10;;;11.50;99.90;;;;;;5117737;28;20038;-72
2023/08/29 04:42:34;;;;;;;0.68;0.28;;;11.50;99.90;;;;;;5117844;28;20023;-72
2023/08/29 04:45:04;;;;;;;0.20;0.20;;;11.50;99.90;;;;;;5100144;28;20020;-72
2023/08/29 04:47:33;;;;;;;1.23;0.20;;;11.50;99.90;;;;;;5118905;28;20107;-71
2023/08/29 04:50:00;;;;;;;0.32;0.10;;;11.50;99.90;;;;;;5117560;28;20022;-71
2023/08/29 04:52:27;;;;;;;0.22;0.20;;;11.50;99.90;;;;;;5117647;28;20430;-71
2023/08/29 04:54:53;;;;;;;0.43;0.30;;;11.50;99.90;;;;;;5117360;28;20066;-71
2023/08/29 04:57:20;;;;;;;0.68;0.30;;;11.40;99.90;;;;;;5117372;28;20035;-71
2023/08/29 04:59:46;;;;;;;0.22;0.10;;;11.50;99.90;;;;;;5099009;28;20031;-71
2023/08/29 05:02:11;;;;;;;0.10;0.10;;;11.50;99.90;;;;;;5117400;28;20032;-71
2023/08/29 05:04:38;;;;;;;0.25;0.10;;;11.50;99.90;;;;;;5117338;28;20030;-71
2023/08/29 05:07:04;;;;;;;2.80;0.40;;;11.50;99.90;;;;;;5117269;28;20376;-71
2023/08/29 05:09:29;;;;;;;0.25;0.20;;;11.50;99.90;;;;;;5098799;28;20027;-71
2023/08/29 05:11:55;;;;;;;0.22;0.22;;;11.50;99.90;;;;;;5117181;28;20039;-71
2023/08/29 05:14:21;;;;;;;0.32;0.15;;;11.50;99.90;;;;;;5117279;28;20024;-71
2023/08/29 05:16:47;;;;;;;0.52;0.10;;;11.50;99.90;;;;;;5117074;28;20023;-71
2023/08/29 05:19:12;;;;;;;0.10;0.10;;;11.40;99.90;;;;;;5116944;28;20024;-71
2023/08/29 05:21:38;;;;;;;0.45;0.20;;;11.40;99.90;;;;;;5116788;28;20099;-71
2023/08/29 05:24:04;;;;;;;0.70;0.20;;;11.40;99.90;;;;;;5117535;28;20020;-71
2023/08/29 05:26:30;;;;;;;0.47;0.22;;;11.40;99.90;;;;;;5117002;28;20557;-71
2023/08/29 05:28:55;;;;;;;0.10;0.10;;;11.40;99.90;;;;;;5116822;28;20028;-71
2023/08/29 05:31:21;;;;;;;0.22;0.15;;;11.30;99.90;;;;;;5115779;28;20067;-71
2023/08/29 05:33:47;;;;;;;0.15;0.08;;;11.30;99.90;;;;;;5116776;28;20028;-71
2023/08/29 05:36:13;;;;;;;0.08;0.03;;;11.30;99.90;;;;;;5115999;28;20023;-72
2023/08/29 05:38:39;;;;;;;0.10;0.10;;;11.30;99.90;;;;;;5115002;28;20032;-71
2023/08/29 05:41:05;;;;;;;0.73;0.40;;;11.30;99.90;;;;;;5097470;28;20077;-71
2023/08/29 05:43:31;;;;;;;6.35;3.63;;;11.30;99.90;;;;;;5116519;28;20099;-71
2023/08/29 05:45:56;;;;;;;1.55;0.75;;;11.30;99.90;;;;;;5098487;28;20486;-71
2023/08/29 05:48:22;;;;;;;0.90;0.35;;;11.30;99.90;;;;;;5117082;27;20115;-71
2023/08/29 05:50:51;;;;;;;0.85;0.43;;;11.30;99.90;;;;;;5115535;28;20426;-72
2023/08/29 05:53:18;;;;;;;0.73;0.40;;;11.30;99.90;;;;;;5113992;28;20034;-73
2023/08/29 05:55:44;;;;;;;0.77;0.50;;;11.30;99.90;;;;;;5095835;28;20107;-72
2023/08/29 05:58:10;;;;;;;1.58;0.75;;;11.30;99.90;;;;;;5114289;28;20031;-73
2023/08/29 06:00:37;;;;;;;2.25;1.10;;;11.30;99.90;;;;;;5096094;28;20396;-72
2023/08/29 06:03:04;;;;;;;2.63;0.45;;;11.30;99.90;;;;;;5115150;28;20421;-72
2023/08/29 06:05:32;;;;;;;0.90;0.10;;;11.30;99.90;;;;;;5115295;28;20024;-73
2023/08/29 06:08:02;;;;;;;0.40;0.20;;;11.30;99.90;;;;;;5117200;28;20026;-72
2023/08/29 06:10:28;;;;;;;0.35;0.10;;;11.30;99.90;;;;;;5117966;28;20106;-72
2023/08/29 06:12:55;;;;;;;0.05;0.05;;;11.30;99.90;;;;;;5120876;28;20031;-71
2023/08/29 06:15:22;;;;;;;1.15;0.43;;;11.30;99.90;;;;;;5118391;28;20023;-71
2023/08/29 06:17:48;;;;;;;1.20;0.10;;;11.30;99.90;;;;;;5098082;28;20376;-71
2023/08/29 06:20:14;;;;;;;0.10;0.10;;;11.30;99.90;;;;;;5115905;28;20020;-71
2023/08/29 06:22:40;;;;;;;0.55;0.30;;;11.30;99.90;;;;;;5116048;28;20111;-71
2023/08/29 06:25:06;;;;;;;3.55;1.85;;;11.40;99.90;;;;;;5097120;28;20538;-71
2023/08/29 06:27:33;;;;;;;2.63;1.00;;;11.40;99.90;;;;;;5115982;28;20028;-71
2023/08/29 06:29:59;;;;;;;1.75;0.80;;;11.40;99.90;;;;;;5115400;28;20019;-72
2023/08/29 06:32:25;;;;;;;0.95;0.25;;;11.40;99.90;;;;;;5116151;28;20540;-71
2023/08/29 06:34:50;;;;;;;0.20;0.10;;;11.40;99.90;;;;;;5115992;28;20031;-71
2023/08/29 06:37:16;;;;;;;0.20;0.10;;;11.40;99.90;;;;;;5115675;28;20024;-71
2023/08/29 06:39:45;;;;;;;0.10;0.10;;;11.40;99.90;;;;;;5115593;28;20024;-71
2023/08/29 06:42:11;;;;;;;0.80;0.10;;;11.40;99.90;;;;;;5115319;28;20019;-71
2023/08/29 06:44:36;;;;;;;0.38;0.10;;;11.50;99.90;;;;;;5097101;28;20110;-71
2023/08/29 06:47:02;;;;;;;0.10;0.10;;;11.50;99.90;;;;;;5097268;28;20028;-71
2023/08/29 06:49:28;;;;;;;0.30;0.10;;;11.60;99.90;;;;;;5115251;28;20023;-72
2023/08/29 06:51:53;;;;;;;1.00;0.20;;;11.70;99.90;;;;;;5115444;28;20028;-71
2023/08/29 06:54:19;;;;;;;0.17;0.13;;;11.70;99.90;;;;;;5115573;28;20115;-71
2023/08/29 06:56:45;;;;;;;0.22;0.10;;;11.70;99.90;;;;;;5080285;28;20106;-71
2023/08/29 06:59:11;;;;;;;0.65;0.10;;;11.70;99.90;;;;;;5115135;28;20028;-71
2023/08/29 07:01:37;;;;;;;0.50;0.15;;;11.70;99.90;;;;;;5114971;28;20038;-71
2023/08/29 07:04:04;;;;;;;0.10;0.10;;;11.70;99.90;;;;;;5096918;28;20480;-71
2023/08/29 07:06:30;;;;;;;0.08;0.00;;;11.70;99.90;;;;;;5115326;28;20016;-71
2023/08/29 07:08:55;;;;;;;0.88;0.20;;;11.70;99.90;;;;;;5114947;28;20023;-71
2023/08/29 07:11:21;;;;;;;0.40;0.20;;;11.70;99.90;;;;;;5114785;28;20130;-71
2023/08/29 07:13:49;;;;;;;0.40;0.20;;;11.70;99.90;;;;;;5080570;28;20031;-71
2023/08/29 07:16:14;;;;;;;0.30;0.10;;;11.80;99.90;;;;;;5074287;28;20496;-71
2023/08/29 07:18:40;;;;;;;0.30;0.10;;;11.80;99.90;;;;;;5092331;28;20029;-72
2023/08/29 07:21:06;;;;;;;0.32;0.20;;;11.80;99.90;;;;;;5091992;28;20028;-71
2023/08/29 07:23:33;;;;;;;0.40;0.10;;;11.90;99.90;;;;;;5073894;28;20032;-72
2023/08/29 07:26:00;;;;;;;1.20;0.10;;;11.90;99.90;;;;;;5093650;28;20059;-71
2023/08/29 07:28:26;;;;;;;0.57;0.20;;;12.00;99.90;;;;;;5094163;28;20430;-71
2023/08/29 07:30:51;;;;;;;0.75;0.10;;;12.00;99.90;;;;;;5075811;28;20123;-72
2023/08/29 07:33:18;;;;;;;1.08;0.20;;;12.00;99.90;;;;;;5094161;28;20120;-71
2023/08/29 07:35:46;;;;;;;0.28;0.17;;;12.10;99.90;;;;;;5094094;28;20161;-71
2023/08/29 07:38:12;;;;;;;0.20;0.20;;;12.10;99.90;;;;;;5094006;28;20032;-71
2023/08/29 07:40:38;;;;;;;0.22;0.13;;;12.10;99.90;;;;;;5093661;28;20028;-71
2023/08/29 07:43:08;;;;;;;0.15;0.10;;;12.20;99.90;;;;;;5093682;28;20028;-72
2023/08/29 07:45:34;;;;;;;0.70;0.10;;;12.20;99.90;;;;;;5098289;28;20094;-72
2023/08/29 07:48:01;;;;;;;0.10;0.10;;;12.30;99.90;;;;;;5092429;28;20050;-71
2023/08/29 07:50:27;;;;;;;0.30;0.20;;;12.40;99.90;;;;;;5114132;28;20034;-71
2023/08/29 07:52:53;;;;;;;0.38;0.20;;;12.50;99.90;;;;;;5113460;28;20027;-71
2023/08/29 07:55:20;;;;;;;0.80;0.30;;;12.50;99.90;;;;;;5113576;28;20111;-71
2023/08/29 07:57:46;;;;;;;0.35;0.20;;;12.60;99.90;;;;;;5113865;28;20023;-71
2023/08/29 08:00:12;;;;;;;0.45;0.10;;;12.60;99.90;;;;;;5113849;28;20077;-71
2023/08/29 08:02:39;;;;;;;0.30;0.20;;;12.70;99.90;;;;;;5114591;28;20012;-71
2023/08/29 08:05:15;;;;;;;1.15;0.10;;;12.70;99.90;;;;;;5113989;28;20436;-71
2023/08/29 08:07:43;;;;;;;0.10;0.10;;;12.60;99.90;;;;;;5113805;28;20020;-71
2023/08/29 08:10:10;;;;;;;0.98;0.20;;;12.60;99.90;;;;;;5113811;28;20392;-71
2023/08/29 08:12:38;;;;;;;0.50;0.20;;;12.50;99.90;;;;;;5114002;28;20058;-71
2023/08/29 08:15:05;;;;;;;1.23;0.43;;;12.40;99.90;;;;;;5114901;28;20380;-72
2023/08/29 08:17:32;;;;;;;1.35;0.13;;;12.40;99.90;;;;;;5113761;28;20369;-72
2023/08/29 08:19:57;;;;;;;0.30;0.20;;;12.40;99.90;;;;;;5113605;28;20156;-72
2023/08/29 08:22:24;;;;;;;0.30;0.10;;;12.40;99.90;;;;;;5114361;28;20055;-71
2023/08/29 08:24:50;;;;;;;0.38;0.20;;;12.40;99.90;;;;;;5120729;28;20023;-72
2023/08/29 08:27:17;;;;;;;1.25;0.30;;;12.30;99.90;;;;;;5134259;28;20361;-71
2023/08/29 08:29:43;;;;;;;1.05;0.30;;;12.30;99.90;;;;;;5129445;28;20024;-71
2023/08/29 08:32:08;;;;;;;0.30;0.17;;;12.40;99.90;;;;;;5113099;28;20023;-71
2023/08/29 08:34:34;;;;;;;0.60;0.20;;;12.40;99.90;;;;;;5113613;28;20016;-71
2023/08/29 08:37:00;;;;;;;0.08;0.00;;;12.30;99.90;;;;;;5113615;28;20392;-71
2023/08/29 08:39:26;;;;;;;0.50;0.20;;;12.40;99.90;;;;;;5114050;28;20031;-71
2023/08/29 08:41:52;;;;;;;0.88;0.20;;;12.40;99.90;;;;;;5113501;28;20504;-71
2023/08/29 08:44:21;;;;;;;0.52;0.20;;;12.40;99.90;;;;;;5113513;28;20107;-71
2023/08/29 08:46:47;;;;;;;0.20;0.20;;;12.50;99.90;;;;;;5113508;28;20027;-71
2023/08/29 08:49:13;;;;;;;0.30;0.20;;;12.50;99.90;;;;;;5113605;28;20059;-71
2023/08/29 08:51:40;;;;;;;0.10;0.10;;;12.60;99.90;;;;;;5113255;28;20024;-71
2023/08/29 08:54:07;;;;;;;0.35;0.15;;;12.60;99.90;;;;;;5112995;28;20043;-71
2023/08/29 08:56:33;;;;;;;0.20;0.10;;;12.70;99.90;;;;;;5112704;28;20028;-72
2023/08/29 08:58:59;;;;;;;0.88;0.20;;;12.80;99.90;;;;;;5094464;28;20088;-71
2023/08/29 09:01:26;;;;;;;0.32;0.13;;;12.80;99.90;;;;;;5095184;28;20035;-71
2023/08/29 09:03:52;;;;;;;0.15;0.10;;;12.80;99.90;;;;;;5113244;28;20580;-71
2023/08/29 09:06:18;;;;;;;0.90;0.45;;;12.80;99.90;;;;;;5115956;28;20036;-71
2023/08/29 09:08:43;;;;;;;2.47;0.17;;;12.80;99.90;;;;;;5117055;28;20031;-71
2023/08/29 09:11:10;;;;;;;0.45;0.20;;;12.80;99.90;;;;;;5116963;28;20036;-71
2023/08/29 09:13:44;;;;;;;0.13;0.10;;;12.70;99.90;;;;;;5081906;28;20027;-71
2023/08/29 09:16:10;;;;;;;1.02;0.20;;;12.70;99.90;;;;;;5117188;28;20019;-71
2023/08/29 09:18:36;;;;;;;0.57;0.20;;;12.60;99.90;;;;;;5116917;28;20028;-70
2023/08/29 09:21:04;;;;;;;0.68;0.10;;;12.60;99.90;;;;;;5116757;28;20038;-71
2023/08/29 09:23:37;;;;;;;0.35;0.20;;;12.60;99.90;;;;;;5116772;28;20492;-71
2023/08/29 09:26:04;;;;;;;0.82;0.20;;;12.60;99.90;;;;;;5116810;28;20107;-71
2023/08/29 09:28:30;;;;;;;0.55;0.10;;;12.50;99.90;;;;;;5116817;28;20498;-71
2023/08/29 09:31:04;;;;;;;0.32;0.10;;;12.50;99.90;;;;;;5116476;28;20035;-71
2023/08/29 09:33:30;;;;;;;0.57;0.30;;;12.50;99.90;;;;;;5098643;28;20118;-71
2023/08/29 09:35:56;;;;;;;0.57;0.30;;;12.40;99.90;;;;;;5117437;28;20425;-71
2023/08/29 09:38:22;;;;;;;0.73;0.30;;;12.40;99.90;;;;;;5116627;28;20031;-71
2023/08/29 09:40:55;;;;;;;2.25;0.40;;;12.40;99.90;;;;;;5098090;28;20038;-71
2023/08/29 09:43:21;;;;;;;1.27;0.60;;;12.50;99.90;;;;;;5116874;28;20019;-71
2023/08/29 09:45:52;;;;;;;0.40;0.20;;;12.50;99.90;;;;;;5116450;28;20063;-71
2023/08/29 09:48:18;;;;;;;1.40;0.40;;;12.50;99.90;;;;;;5116467;28;20027;-71
2023/08/29 09:50:45;;;;;;;0.55;0.30;;;12.60;99.90;;;;;;5098049;28;20028;-71
2023/08/29 09:53:16;;;;;;;2.33;0.32;;;12.60;99.90;;;;;;5116631;28;20430;-71
2023/08/29 09:56:09;;;;;;;1.13;0.30;;;12.70;99.90;;;;;;5116548;28;20028;-71
2023/08/29 09:58:37;;;;;;;1.70;0.20;;;12.80;99.90;;;;;;5106257;28;20070;-71
2023/08/29 10:01:05;;;;;;;0.55;0.30;;;12.80;99.90;;;;;;5115977;28;20023;-71
2023/08/29 10:03:32;;;;;;;0.38;0.25;;;12.90;99.90;;;;;;5116118;28;20016;-71
2023/08/29 10:06:01;;;;;;;0.82;0.32;;;13.00;99.90;;;;;;5116069;28;20357;-71
2023/08/29 10:08:41;;;;;;;0.70;0.30;;;13.00;99.90;;;;;;5116042;28;20012;-71
2023/08/29 10:11:07;;;;;;;0.10;0.10;;;13.10;99.90;;;;;;5116086;28;20015;-71
2023/08/29 10:13:37;;;;;;;0.38;0.20;;;13.10;99.90;;;;;;5115856;28;20024;-71
2023/08/29 10:16:04;;;;;;;0.32;0.20;;;13.10;99.90;;;;;;5115262;28;20040;-71
2023/08/29 10:18:30;;;;;;;0.82;0.20;;;13.20;99.90;;;;;;5115819;28;20050;-71
2023/08/29 10:20:59;;;;;;;0.45;0.20;;;13.20;99.90;;;;;;5115582;28;20495;-71
2023/08/29 10:23:26;;;;;;;1.40;0.20;;;13.20;99.90;;;;;;5115682;28;20495;-71
2023/08/29 10:25:52;;;;;;;0.68;0.30;;;13.20;99.90;;;;;;5115595;28;20555;-71
2023/08/29 10:28:19;;;;;;;0.93;0.47;;;13.20;99.90;;;;;;5115500;28;20051;-72
2023/08/29 10:30:50;;;;;;;0.93;0.20;;;13.20;99.90;;;;;;5116141;28;20036;-72
2023/08/29 10:33:17;;;;;;;0.32;0.10;;;13.30;99.90;;;;;;5115354;28;20020;-72
2023/08/29 10:35:47;;;;;;;0.20;0.10;;;13.30;99.90;;;;;;5115182;28;20047;-72
2023/08/29 10:38:14;;;;;;;0.50;0.20;;;13.20;99.90;;;;;;5114744;28;20498;-72
2023/08/29 10:40:41;;;;;;;0.40;0.30;;;13.20;99.90;;;;;;5114685;28;20038;-72
2023/08/29 10:43:20;;;;;;;0.70;0.20;;;13.20;99.90;;;;;;5115013;28;20015;-72
2023/08/29 10:45:50;;;;;;;0.52;0.13;;;13.20;99.90;;;;;;5097052;28;20028;-72
2023/08/29 10:48:17;;;;;;;1.33;0.30;;;13.20;99.90;;;;;;5096852;28;20476;-74
2023/08/29 10:50:48;;;;;;;0.40;0.20;;;13.30;99.90;;;;;;5095985;28;20077;-72
2023/08/29 10:53:20;;;;;;;1.08;0.55;;;13.40;99.90;;;;;;5114405;28;20023;-72
2023/08/29 10:56:00;;;;;;;0.50;0.10;;;13.40;99.90;;;;;;5101133;28;20042;-72
2023/08/29 10:58:52;;;;;;;0.60;0.10;;;13.40;99.90;;;;;;5114533;28;20115;-72
2023/08/29 11:01:27;;;;;;;0.90;0.30;;;13.50;99.90;;;;;;5110175;28;20040;-72
2023/08/29 11:03:57;;;;;;;1.60;0.28;;;13.50;99.90;;;;;;5114891;28;20020;-72
2023/08/29 11:06:25;;;;;;;0.70;0.30;;;13.60;99.90;;;;;;5114099;28;20032;-72
2023/08/29 11:09:20;;;;;;;0.43;0.20;;;13.60;99.90;;;;;;5113985;28;20476;-73
2023/08/29 11:12:12;;;;;;;0.55;0.30;;;13.50;99.90;;;;;;5076322;28;20028;-72
2023/08/29 11:14:53;;;;;;;0.25;0.15;;;13.50;99.90;;;;;;5104086;28;20039;-72
2023/08/29 11:17:25;;;;;;;;;;;13.50;99.90;;;;;;5115014;28;20023;-73
2023/08/29 11:19:52;;;;;;;0.98;0.10;;;13.60;99.90;;;;;;5114422;28;19910;-72
2023/08/29 11:22:22;;;;;;;0.57;0.10;;;13.60;99.90;;;;;;5114508;28;20024;-72
2023/08/29 11:24:54;;;;;;;0.25;0.10;;;13.60;99.90;;;;;;5114473;28;20015;-72
2023/08/29 11:27:20;;;;;;;0.45;0.20;;;13.70;99.90;;;;;;5114052;28;20095;-72
2023/08/29 11:29:47;;;;;;;0.20;0.20;;;13.70;99.90;;;;;;5095890;28;20030;-72
2023/08/29 11:32:12;;;;;;;0.85;0.30;;;13.70;99.90;;;;;;5114303;28;20027;-72
2023/08/29 11:34:38;;;;;;;0.68;0.32;;;13.70;99.90;;;;;;5096013;28;20390;-72
2023/08/29 11:37:11;;;;;;;0.70;0.20;;;13.70;99.90;;;;;;5114213;28;20422;-72
2023/08/29 11:39:38;;;;;;;0.20;0.10;;;13.80;99.90;;;;;;5114098;28;20382;-72
2023/08/29 11:42:04;;;;;;;0.55;0.20;;;13.80;99.90;;;;;;5114071;28;20391;-72
2023/08/29 11:44:33;;;;;;;0.93;0.30;;;13.80;99.90;;;;;;5114048;28;20430;-72
2023/08/29 11:46:59;;;;;;;0.57;0.30;;;13.80;99.90;;;;;;5113986;28;20468;-72
2023/08/29 11:49:25;;;;;;;0.80;0.25;;;13.80;99.90;;;;;;5114053;28;20027;-72
2023/08/29 11:51:51;;;;;;;0.93;0.20;;;13.80;99.90;;;;;;5113061;28;20419;-73
2023/08/29 11:54:41;;;;;;;0.45;0.20;;;13.80;99.90;;;;;;5113349;28;20039;-72
2023/08/29 11:57:07;;;;;;;0.77;0.20;;;13.80;99.90;;;;;;5113974;28;20023;-72
2023/08/29 11:59:34;;;;;;;0.50;0.20;;;13.80;99.90;;;;;;5113836;28;20023;-72
2023/08/29 12:02:00;;;;;;;0.38;0.20;;;13.80;99.90;;;;;;5113829;28;20036;-72
2023/08/29 12:04:27;;;;;;;0.38;0.05;;;13.80;99.90;;;;;;5113897;28;20051;-72
2023/08/29 12:07:14;;;;;;;0.90;0.30;;;13.70;99.90;;;;;;5113876;28;20387;-72
2023/08/29 12:09:42;;;;;;;5.65;2.03;;;13.70;99.90;;;;;;5113732;28;20023;-72
2023/08/29 12:12:18;;;;;;;11.20;3.33;;;13.70;99.90;;;;;;5113617;28;20035;-72
2023/08/29 12:14:54;;;;;;;9.98;3.75;;;13.70;99.90;;;;;;5113804;28;20046;-72
2023/08/29 12:17:20;;;;;;;7.63;2.90;;;13.70;99.90;;;;;;5095557;28;20373;-72
2023/08/29 12:19:49;;;;;;;4.35;1.67;;;13.70;99.90;;;;;;5113599;28;20019;-72
2023/08/29 12:22:21;;;;;;;4.40;1.48;;;13.70;99.90;;;;;;5113674;28;20024;-72
2023/08/29 12:24:55;;;;;;;2.97;1.10;;;13.70;99.90;;;;;;5095439;28;20057;-72
2023/08/29 12:27:22;;;;;;;1.05;0.50;;;13.80;99.90;;;;;;5113675;28;20020;-72
2023/08/29 12:29:47;;;;;;;0.60;0.25;;;13.80;99.90;;;;;;5113043;28;20024;-72
2023/08/29 12:32:16;;;;;;;0.95;0.20;;;13.80;99.90;;;;;;5095571;28;20107;-72
2023/08/29 12:34:45;;;;;;;1.02;0.30;;;13.80;99.90;;;;;;5096244;28;20050;-72
2023/08/29 12:37:11;;;;;;;0.75;0.30;;;13.80;99.90;;;;;;5113540;28;20028;-72
2023/08/29 12:39:37;;;;;;;1.27;0.20;;;13.80;99.90;;;;;;5115158;28;20023;-72
2023/08/29 12:42:04;;;;;;;0.20;0.20;;;13.80;99.90;;;;;;5117623;28;20027;-72
2023/08/29 12:44:30;;;;;;;0.45;0.20;;;13.70;99.90;;;;;;5117618;28;20503;-72
2023/08/29 12:46:55;;;;;;;0.43;0.30;;;13.70;99.90;;;;;;5118275;28;20028;-72
2023/08/29 12:49:21;;;;;;;0.40;0.15;;;13.80;99.90;;;;;;5117554;28;20027;-72
2023/08/29 12:51:46;;;;;;;0.30;0.10;;;13.80;99.90;;;;;;5099333;28;20039;-72